weather.gov     
National Weather Service

Terminal Aerodrome Forecast
NWS Homepage
This page is being discontinued on March 12, 2014.
The same data is available at this site. Please update your bookmarks.
Thank you, and we apologize for the inconvenience.
Please send an email to SR-SRH.Webmaster@noaa.gov with any concerns.


Current Version
Previous Version:    01  02  03  04  05  06  07  08  09  10  11  12  13  14  15  16  17  18  19  20  21  22  23  24  25  26  27  28  29  30  
   31  32  33  34  35  36  37  38  39  40  41  42  43  
[Printable]
570
FTUS41 KLWX 310600 AAA
TAFBWI
TAF AMD
KBWI 310610Z 3106/0112 00000KT P6SM FEW030 BKN045
      TEMPO 3106/3109 VRB04KT 6SM BR BKN009 OVC030
     FM310900 19005KT P6SM BKN030
     FM311400 21007KT P6SM FEW040 SCT050
     FM312200 22007KT P6SM -SHRA SCT050 OVC090
     FM010200 24004KT P6SM SCT040 OVC110=


U.S. Dept. of Commerce
NOAA National Weather Service
1325 East West Highway
Silver Spring, MD 20910
E-mail: w-nws.webmaster@noaa.gov
Page last modified: May 16, 2007
NATIONAL WEATHER SERVICE: for Safety, for Work, for Fun - FOR LIFE